FIN6X EFHK-LDDU
Flight info
| Callsign | FIN6X |
|---|---|
| Flight time | 2h 36m |
| Altitude | 36000 |
| Route | KOIVU Y123 LARTI DCT NAVOT DCT NEVTO P870 BERIL DCT NAPOT DCT SUWGI DCT LOGDA DCT BABKO DCT SLC DCT BAREB DCT SIVLA DCT BARIT P10 NETKO |
| Aircraft | A320/M-SDE1E2E3FGIJ1M1RWXYZ/LB1 |
Departure
| Time | 2026-04-22 14:21 |
|---|---|
| Airport | Helsinki Vantaa Airport (EFHK) |
Arrival
| Time | 2026-04-22 16:57 |
|---|---|
| Airport | Dubrovnik Ruđer Bošković Airport (LDDU) |
| Time | Latitude | Longitude | Altitude | Speed | Heading |
|---|---|---|---|---|---|
| 2026-04-22 13:46 | 60.31461 | 24.96165 | 167 ft | 0 kts | 31° |
| 2026-04-22 14:08 | 60.31447 | 24.96147 | 166 ft | 4 kts | 33° |
| 2026-04-22 14:09 | 60.31425 | 24.96118 | 166 ft | 4 kts | 30° |
| 2026-04-22 14:09 | 60.31403 | 24.96098 | 166 ft | 2 kts | 15° |
| 2026-04-22 14:09 | 60.31379 | 24.96093 | 166 ft | 4 kts | 341° |
| 2026-04-22 14:09 | 60.31358 | 24.96121 | 166 ft | 4 kts | 316° |
| 2026-04-22 14:10 | 60.31361 | 24.96113 | 166 ft | 4 kts | 311° |
| 2026-04-22 14:10 | 60.31366 | 24.96066 | 166 ft | 4 kts | 265° |
| 2026-04-22 14:10 | 60.31357 | 24.96021 | 166 ft | 4 kts | 241° |
| 2026-04-22 14:10 | 60.31339 | 24.95980 | 166 ft | 4 kts | 226° |
| 2026-04-22 14:11 | 60.31320 | 24.95942 | 166 ft | 4 kts | 225° |
| 2026-04-22 14:11 | 60.31309 | 24.95919 | 166 ft | 1 kts | 227° |
| 2026-04-22 14:14 | 60.31285 | 24.95864 | 166 ft | 10 kts | 229° |
| 2026-04-22 14:14 | 60.31227 | 24.95738 | 166 ft | 16 kts | 227° |
| 2026-04-22 14:14 | 60.31169 | 24.95539 | 166 ft | 17 kts | 284° |
| 2026-04-22 14:14 | 60.31249 | 24.95363 | 166 ft | 17 kts | 317° |
| 2026-04-22 14:15 | 60.31339 | 24.95199 | 166 ft | 17 kts | 317° |
| 2026-04-22 14:15 | 60.31424 | 24.95023 | 167 ft | 17 kts | 311° |
| 2026-04-22 14:15 | 60.31519 | 24.95054 | 169 ft | 15 kts | 47° |
| 2026-04-22 14:15 | 60.31585 | 24.95202 | 170 ft | 13 kts | 48° |
| 2026-04-22 14:16 | 60.31644 | 24.95333 | 170 ft | 12 kts | 47° |
| 2026-04-22 14:16 | 60.31700 | 24.95455 | 171 ft | 12 kts | 47° |
| 2026-04-22 14:16 | 60.31792 | 24.95658 | 170 ft | 27 kts | 47° |
| 2026-04-22 14:16 | 60.31921 | 24.95942 | 170 ft | 15 kts | 47° |
| 2026-04-22 14:17 | 60.31992 | 24.95915 | 172 ft | 11 kts | 317° |
| 2026-04-22 14:17 | 60.32052 | 24.95799 | 174 ft | 12 kts | 317° |
| 2026-04-22 14:17 | 60.32130 | 24.95653 | 172 ft | 20 kts | 317° |
| 2026-04-22 14:17 | 60.32238 | 24.95456 | 175 ft | 22 kts | 317° |
| 2026-04-22 14:18 | 60.32366 | 24.95258 | 177 ft | 25 kts | 338° |
| 2026-04-22 14:18 | 60.32537 | 24.95146 | 180 ft | 26 kts | 342° |
| 2026-04-22 14:18 | 60.32704 | 24.95037 | 179 ft | 26 kts | 342° |
| 2026-04-22 14:18 | 60.32879 | 24.94922 | 174 ft | 27 kts | 335° |
| 2026-04-22 14:19 | 60.33009 | 24.94697 | 180 ft | 23 kts | 317° |
| 2026-04-22 14:19 | 60.33111 | 24.94504 | 203 ft | 17 kts | 308° |
| 2026-04-22 14:19 | 60.33091 | 24.94340 | 193 ft | 13 kts | 223° |
| 2026-04-22 14:19 | 60.33074 | 24.94304 | 194 ft | 0 kts | 227° |
| 2026-04-22 14:20 | 60.33016 | 24.94173 | 188 ft | 41 kts | 228° |
| 2026-04-22 14:20 | 60.32661 | 24.93390 | 181 ft | 106 kts | 227° |
| 2026-04-22 14:21 | 60.31312 | 24.90280 | 621 ft | 164 kts | 232° |
| 2026-04-22 14:21 | 60.30566 | 24.88515 | 1235 ft | 166 kts | 239° |
| 2026-04-22 14:22 | 60.29149 | 24.84390 | 2054 ft | 199 kts | 242° |
| 2026-04-22 14:22 | 60.28330 | 24.81902 | 2303 ft | 227 kts | 241° |
| 2026-04-22 14:22 | 60.26489 | 24.76052 | 3409 ft | 257 kts | 251° |
| 2026-04-22 14:23 | 60.25769 | 24.72765 | 4341 ft | 258 kts | 255° |
| 2026-04-22 14:23 | 60.25123 | 24.69357 | 5143 ft | 264 kts | 257° |
| 2026-04-22 14:23 | 60.24445 | 24.65876 | 5961 ft | 274 kts | 249° |
| 2026-04-22 14:23 | 60.23107 | 24.62999 | 6679 ft | 297 kts | 214° |
| 2026-04-22 14:24 | 60.21102 | 24.61732 | 7432 ft | 309 kts | 189° |
| 2026-04-22 14:24 | 60.18933 | 24.61644 | 8243 ft | 315 kts | 177° |
| 2026-04-22 14:24 | 60.16763 | 24.62084 | 9044 ft | 320 kts | 173° |
| 2026-04-22 14:24 | 60.14516 | 24.62694 | 9829 ft | 324 kts | 173° |
| 2026-04-22 14:25 | 60.12226 | 24.63275 | 10218 ft | 343 kts | 174° |
| 2026-04-22 14:25 | 60.09805 | 24.63771 | 10446 ft | 365 kts | 176° |
| 2026-04-22 14:25 | 60.07229 | 24.64170 | 10977 ft | 376 kts | 177° |
| 2026-04-22 14:25 | 60.04604 | 24.64485 | 11657 ft | 381 kts | 178° |
| 2026-04-22 14:26 | 60.01940 | 24.64749 | 12317 ft | 386 kts | 179° |
| 2026-04-22 14:26 | 59.99230 | 24.64995 | 12959 ft | 393 kts | 179° |
| 2026-04-22 14:26 | 59.96479 | 24.65251 | 13588 ft | 399 kts | 179° |
| 2026-04-22 14:26 | 59.93686 | 24.65529 | 14145 ft | 405 kts | 179° |
| 2026-04-22 14:27 | 59.90854 | 24.65828 | 14717 ft | 410 kts | 179° |
| 2026-04-22 14:27 | 59.87996 | 24.66134 | 15312 ft | 412 kts | 178° |
| 2026-04-22 14:27 | 59.85123 | 24.66256 | 15925 ft | 414 kts | 186° |
| 2026-04-22 14:27 | 59.82269 | 24.65503 | 16515 ft | 414 kts | 197° |
| 2026-04-22 14:28 | 59.79455 | 24.64171 | 17102 ft | 417 kts | 198° |
| 2026-04-22 14:28 | 59.76616 | 24.62817 | 17677 ft | 421 kts | 198° |
| 2026-04-22 14:28 | 59.73754 | 24.61458 | 18232 ft | 425 kts | 198° |
| 2026-04-22 14:28 | 59.70862 | 24.60100 | 18724 ft | 430 kts | 198° |
| 2026-04-22 14:29 | 59.67935 | 24.58732 | 19204 ft | 434 kts | 198° |
| 2026-04-22 14:29 | 59.64989 | 24.57333 | 19676 ft | 438 kts | 198° |
| 2026-04-22 14:29 | 59.62017 | 24.55834 | 20154 ft | 442 kts | 199° |
| 2026-04-22 14:29 | 59.59035 | 24.54263 | 20629 ft | 445 kts | 199° |
| 2026-04-22 14:30 | 59.56034 | 24.52657 | 21134 ft | 449 kts | 199° |
| 2026-04-22 14:30 | 59.53008 | 24.51043 | 21606 ft | 453 kts | 199° |
| 2026-04-22 14:30 | 59.49941 | 24.49425 | 22067 ft | 458 kts | 199° |
| 2026-04-22 14:30 | 59.46846 | 24.47814 | 22517 ft | 463 kts | 199° |
| 2026-04-22 14:31 | 59.43718 | 24.46202 | 22963 ft | 467 kts | 199° |
| 2026-04-22 14:31 | 59.40557 | 24.44582 | 23396 ft | 472 kts | 199° |
| 2026-04-22 14:31 | 59.37412 | 24.42975 | 23758 ft | 476 kts | 199° |
| 2026-04-22 14:31 | 59.34149 | 24.41324 | 24146 ft | 479 kts | 198° |
| 2026-04-22 14:32 | 59.30935 | 24.39888 | 24506 ft | 483 kts | 195° |
| 2026-04-22 14:32 | 59.27614 | 24.38630 | 24875 ft | 487 kts | 193° |
| 2026-04-22 14:32 | 59.24279 | 24.37517 | 25235 ft | 490 kts | 192° |
| 2026-04-22 14:32 | 59.20906 | 24.36448 | 25593 ft | 493 kts | 192° |
| 2026-04-22 14:33 | 59.17516 | 24.35361 | 25939 ft | 495 kts | 192° |
| 2026-04-22 14:33 | 59.14111 | 24.34220 | 26285 ft | 498 kts | 193° |
| 2026-04-22 14:33 | 59.10690 | 24.33018 | 26621 ft | 500 kts | 193° |
| 2026-04-22 14:33 | 59.07266 | 24.31782 | 26996 ft | 503 kts | 193° |
| 2026-04-22 14:34 | 59.03811 | 24.30526 | 27253 ft | 507 kts | 193° |
| 2026-04-22 14:34 | 59.00337 | 24.29271 | 27624 ft | 508 kts | 192° |
| 2026-04-22 14:34 | 58.96857 | 24.28025 | 27969 ft | 510 kts | 192° |
| 2026-04-22 14:34 | 58.93359 | 24.26786 | 28290 ft | 512 kts | 192° |
| 2026-04-22 14:35 | 58.89848 | 24.25556 | 28607 ft | 514 kts | 192° |
| 2026-04-22 14:35 | 58.86318 | 24.24322 | 28887 ft | 517 kts | 192° |
| 2026-04-22 14:35 | 58.82768 | 24.23084 | 29174 ft | 519 kts | 192° |
| 2026-04-22 14:35 | 58.79205 | 24.21844 | 29466 ft | 521 kts | 192° |
| 2026-04-22 14:36 | 58.75627 | 24.20602 | 29732 ft | 524 kts | 192° |
| 2026-04-22 14:36 | 58.72040 | 24.19355 | 30019 ft | 524 kts | 191° |
| 2026-04-22 14:36 | 58.68449 | 24.18104 | 30304 ft | 524 kts | 191° |
| 2026-04-22 14:36 | 58.64863 | 24.16852 | 30531 ft | 526 kts | 191° |
| 2026-04-22 14:37 | 58.61308 | 24.15616 | 30742 ft | 528 kts | 191° |
| 2026-04-22 14:37 | 58.57691 | 24.14361 | 30948 ft | 529 kts | 191° |
| 2026-04-22 14:37 | 58.54058 | 24.13110 | 31185 ft | 530 kts | 191° |
| 2026-04-22 14:37 | 58.50431 | 24.11870 | 31474 ft | 530 kts | 191° |
| 2026-04-22 14:38 | 58.46806 | 24.10634 | 31731 ft | 529 kts | 191° |
| 2026-04-22 14:38 | 58.43188 | 24.09401 | 32074 ft | 527 kts | 190° |
| 2026-04-22 14:38 | 58.39585 | 24.08171 | 32429 ft | 525 kts | 190° |
| 2026-04-22 14:38 | 58.35988 | 24.06944 | 32725 ft | 524 kts | 190° |
| 2026-04-22 14:39 | 58.32402 | 24.05722 | 33013 ft | 524 kts | 190° |
| 2026-04-22 14:39 | 58.28815 | 24.04499 | 33281 ft | 524 kts | 190° |
| 2026-04-22 14:39 | 58.25227 | 24.03279 | 33550 ft | 524 kts | 190° |
| 2026-04-22 14:40 | 58.19262 | 24.01260 | 33996 ft | 524 kts | 189° |
| 2026-04-22 14:40 | 58.14469 | 23.99650 | 34356 ft | 522 kts | 189° |
| 2026-04-22 14:40 | 58.10899 | 23.98453 | 34653 ft | 520 kts | 189° |
| 2026-04-22 14:40 | 58.07337 | 23.97259 | 34904 ft | 519 kts | 189° |
| 2026-04-22 14:41 | 58.03788 | 23.96074 | 35161 ft | 518 kts | 189° |
| 2026-04-22 14:41 | 58.00233 | 23.94884 | 35340 ft | 519 kts | 189° |
| 2026-04-22 14:41 | 57.96668 | 23.93691 | 35523 ft | 520 kts | 189° |
| 2026-04-22 14:41 | 57.93110 | 23.92504 | 35731 ft | 519 kts | 189° |
| 2026-04-22 14:42 | 57.89552 | 23.91323 | 35882 ft | 519 kts | 188° |
| 2026-04-22 14:42 | 57.86007 | 23.90146 | 35927 ft | 516 kts | 188° |
| 2026-04-22 14:42 | 57.78965 | 23.87824 | 35931 ft | 513 kts | 188° |
| 2026-04-22 14:43 | 57.71934 | 23.85531 | 35929 ft | 513 kts | 188° |
| 2026-04-22 14:43 | 57.64896 | 23.83225 | 35937 ft | 513 kts | 188° |
| 2026-04-22 14:44 | 57.57876 | 23.80921 | 35934 ft | 511 kts | 188° |
| 2026-04-22 14:44 | 57.50916 | 23.78652 | 35949 ft | 511 kts | 188° |
| 2026-04-22 14:45 | 57.43920 | 23.76387 | 35954 ft | 510 kts | 188° |
| 2026-04-22 14:45 | 57.36922 | 23.74144 | 35954 ft | 510 kts | 188° |
| 2026-04-22 14:46 | 57.29924 | 23.71901 | 35963 ft | 510 kts | 187° |
| 2026-04-22 14:46 | 57.22948 | 23.69666 | 35967 ft | 509 kts | 187° |
| 2026-04-22 14:47 | 57.15973 | 23.67434 | 35963 ft | 508 kts | 187° |
| 2026-04-22 14:47 | 57.09011 | 23.65223 | 35966 ft | 508 kts | 187° |
| 2026-04-22 14:48 | 57.02052 | 23.63023 | 35967 ft | 507 kts | 187° |
| 2026-04-22 14:48 | 56.95093 | 23.60836 | 35968 ft | 507 kts | 187° |
| 2026-04-22 14:49 | 56.88140 | 23.58650 | 35968 ft | 507 kts | 187° |
| 2026-04-22 14:49 | 56.81192 | 23.56471 | 35961 ft | 506 kts | 187° |
| 2026-04-22 14:50 | 56.74296 | 23.54325 | 35966 ft | 506 kts | 186° |
| 2026-04-22 14:50 | 56.67363 | 23.52169 | 35969 ft | 505 kts | 186° |
| 2026-04-22 14:51 | 56.60437 | 23.50027 | 35964 ft | 505 kts | 186° |
| 2026-04-22 14:51 | 56.53515 | 23.47905 | 35965 ft | 505 kts | 186° |
| 2026-04-22 14:52 | 56.46589 | 23.45773 | 35967 ft | 504 kts | 186° |
| 2026-04-22 14:52 | 56.39992 | 23.43746 | 35971 ft | 504 kts | 186° |
| 2026-04-22 14:53 | 56.33068 | 23.41777 | 35975 ft | 503 kts | 184° |
| 2026-04-22 14:53 | 56.26120 | 23.40473 | 35973 ft | 501 kts | 181° |
| 2026-04-22 14:54 | 56.19217 | 23.39409 | 35972 ft | 501 kts | 181° |
| 2026-04-22 14:54 | 56.12277 | 23.38206 | 35976 ft | 501 kts | 182° |
| 2026-04-22 14:55 | 56.05339 | 23.36886 | 35970 ft | 502 kts | 182° |
| 2026-04-22 14:55 | 55.98394 | 23.35565 | 35950 ft | 502 kts | 182° |
| 2026-04-22 14:56 | 55.91446 | 23.34281 | 35956 ft | 502 kts | 181° |
| 2026-04-22 14:56 | 55.84504 | 23.33018 | 35960 ft | 501 kts | 181° |
| 2026-04-22 14:57 | 55.77571 | 23.31756 | 35963 ft | 500 kts | 181° |
| 2026-04-22 14:57 | 55.70649 | 23.30489 | 35964 ft | 500 kts | 181° |
| 2026-04-22 14:58 | 55.64896 | 23.29446 | 35980 ft | 500 kts | 181° |
| 2026-04-22 14:58 | 55.57986 | 23.28196 | 35993 ft | 498 kts | 181° |
| 2026-04-22 14:59 | 55.51092 | 23.26957 | 35995 ft | 497 kts | 181° |
| 2026-04-22 14:59 | 55.44210 | 23.25721 | 35993 ft | 497 kts | 181° |
| 2026-04-22 15:00 | 55.37335 | 23.24242 | 35983 ft | 498 kts | 184° |
| 2026-04-22 15:00 | 55.30488 | 23.22299 | 35992 ft | 498 kts | 185° |
| 2026-04-22 15:01 | 55.23655 | 23.20303 | 36018 ft | 497 kts | 185° |
| 2026-04-22 15:01 | 55.17980 | 23.18755 | 36002 ft | 497 kts | 184° |
| 2026-04-22 15:02 | 55.17152 | 23.18536 | 36001 ft | 497 kts | 184° |
| 2026-04-22 15:02 | 55.10433 | 23.16774 | 36007 ft | 496 kts | 184° |
| 2026-04-22 15:03 | 55.03607 | 23.14994 | 35999 ft | 495 kts | 184° |
| 2026-04-22 15:03 | 54.96794 | 23.13206 | 35992 ft | 495 kts | 184° |
| 2026-04-22 15:04 | 54.89993 | 23.11408 | 35994 ft | 494 kts | 184° |
| 2026-04-22 15:04 | 54.83194 | 23.09622 | 36004 ft | 494 kts | 183° |
| 2026-04-22 15:05 | 54.76402 | 23.07841 | 36005 ft | 493 kts | 183° |
| 2026-04-22 15:05 | 54.69613 | 23.06072 | 36001 ft | 493 kts | 183° |
| 2026-04-22 15:06 | 54.62825 | 23.04314 | 35996 ft | 493 kts | 183° |
| 2026-04-22 15:06 | 54.56090 | 23.02565 | 36013 ft | 492 kts | 183° |
| 2026-04-22 15:07 | 54.49322 | 23.00819 | 36018 ft | 491 kts | 183° |
| 2026-04-22 15:07 | 54.42564 | 22.99087 | 36015 ft | 491 kts | 183° |
| 2026-04-22 15:08 | 54.35807 | 22.97356 | 36026 ft | 491 kts | 183° |
| 2026-04-22 15:08 | 54.29060 | 22.95626 | 36037 ft | 490 kts | 183° |
| 2026-04-22 15:09 | 54.22321 | 22.93904 | 36027 ft | 489 kts | 182° |
| 2026-04-22 15:09 | 54.15584 | 22.92198 | 36020 ft | 489 kts | 182° |
| 2026-04-22 15:10 | 54.08854 | 22.90348 | 36035 ft | 493 kts | 188° |
| 2026-04-22 15:10 | 54.02402 | 22.86150 | 36031 ft | 501 kts | 203° |
| 2026-04-22 15:11 | 54.02041 | 22.85841 | 36030 ft | 501 kts | 203° |
| 2026-04-22 15:11 | 53.95812 | 22.80541 | 36024 ft | 500 kts | 203° |
| 2026-04-22 15:12 | 53.89582 | 22.75286 | 36019 ft | 500 kts | 202° |
| 2026-04-22 15:12 | 53.83342 | 22.70056 | 36022 ft | 500 kts | 202° |
| 2026-04-22 15:13 | 53.77102 | 22.64834 | 36023 ft | 500 kts | 203° |
| 2026-04-22 15:13 | 53.70916 | 22.59644 | 36022 ft | 500 kts | 203° |
| 2026-04-22 15:14 | 53.64675 | 22.54438 | 36024 ft | 500 kts | 202° |
| 2026-04-22 15:14 | 53.58394 | 22.49222 | 36039 ft | 499 kts | 202° |
| 2026-04-22 15:15 | 53.52205 | 22.44091 | 36044 ft | 499 kts | 202° |
| 2026-04-22 15:15 | 53.45975 | 22.38947 | 36039 ft | 499 kts | 202° |
| 2026-04-22 15:16 | 53.39744 | 22.33830 | 36056 ft | 499 kts | 202° |
| 2026-04-22 15:16 | 53.33515 | 22.28718 | 36058 ft | 498 kts | 202° |
| 2026-04-22 15:17 | 53.27299 | 22.23639 | 36048 ft | 497 kts | 202° |
| 2026-04-22 15:17 | 53.21092 | 22.18595 | 36053 ft | 496 kts | 202° |
| 2026-04-22 15:18 | 53.14883 | 22.13566 | 36073 ft | 495 kts | 202° |
| 2026-04-22 15:18 | 53.08693 | 22.08548 | 36070 ft | 495 kts | 202° |
| 2026-04-22 15:19 | 53.02504 | 22.03543 | 36060 ft | 494 kts | 202° |
| 2026-04-22 15:19 | 52.96319 | 21.98569 | 36058 ft | 494 kts | 202° |
| 2026-04-22 15:20 | 52.90135 | 21.93621 | 36077 ft | 493 kts | 202° |
| 2026-04-22 15:20 | 52.83964 | 21.88692 | 36074 ft | 492 kts | 202° |
| 2026-04-22 15:21 | 52.77795 | 21.83779 | 36070 ft | 492 kts | 202° |
| 2026-04-22 15:21 | 52.71626 | 21.78888 | 36090 ft | 492 kts | 202° |
| 2026-04-22 15:22 | 52.65469 | 21.74013 | 36085 ft | 491 kts | 202° |
| 2026-04-22 15:22 | 52.59318 | 21.69154 | 36082 ft | 490 kts | 202° |
| 2026-04-22 15:23 | 52.53176 | 21.64326 | 36076 ft | 489 kts | 202° |
| 2026-04-22 15:23 | 52.47041 | 21.59510 | 36085 ft | 488 kts | 202° |
| 2026-04-22 15:24 | 52.40909 | 21.54723 | 36082 ft | 488 kts | 202° |
| 2026-04-22 15:24 | 52.34784 | 21.49957 | 36079 ft | 487 kts | 202° |
| 2026-04-22 15:25 | 52.28667 | 21.45208 | 36078 ft | 487 kts | 202° |
| 2026-04-22 15:25 | 52.22548 | 21.40472 | 36097 ft | 486 kts | 202° |
| 2026-04-22 15:26 | 52.16481 | 21.35789 | 36096 ft | 485 kts | 202° |
| 2026-04-22 15:26 | 52.10381 | 21.31092 | 36100 ft | 485 kts | 202° |
| 2026-04-22 15:27 | 52.04288 | 21.26413 | 36103 ft | 484 kts | 202° |
| 2026-04-22 15:27 | 51.98193 | 21.21762 | 36096 ft | 483 kts | 202° |
| 2026-04-22 15:28 | 51.92114 | 21.17128 | 36095 ft | 483 kts | 202° |
| 2026-04-22 15:28 | 51.86039 | 21.12492 | 36088 ft | 482 kts | 202° |
| 2026-04-22 15:29 | 51.79961 | 21.07873 | 36096 ft | 482 kts | 201° |
| 2026-04-22 15:30 | 51.71876 | 21.01777 | 36092 ft | 482 kts | 201° |
| 2026-04-22 15:30 | 51.64775 | 20.96447 | 36098 ft | 482 kts | 201° |
| 2026-04-22 15:31 | 51.58702 | 20.91886 | 36101 ft | 482 kts | 201° |
| 2026-04-22 15:31 | 51.52631 | 20.87341 | 36103 ft | 482 kts | 201° |
| 2026-04-22 15:32 | 51.46553 | 20.82808 | 36104 ft | 482 kts | 201° |
| 2026-04-22 15:32 | 51.40471 | 20.78296 | 36104 ft | 482 kts | 201° |
| 2026-04-22 15:33 | 51.34389 | 20.73793 | 36122 ft | 481 kts | 201° |
| 2026-04-22 15:33 | 51.28318 | 20.69298 | 36120 ft | 481 kts | 201° |
| 2026-04-22 15:34 | 51.22263 | 20.64747 | 36120 ft | 481 kts | 202° |
| 2026-04-22 15:34 | 51.16230 | 20.60138 | 36134 ft | 481 kts | 202° |
| 2026-04-22 15:35 | 51.11210 | 20.56323 | 36129 ft | 481 kts | 202° |
| 2026-04-22 15:35 | 51.04153 | 20.50992 | 36124 ft | 480 kts | 202° |
| 2026-04-22 15:36 | 50.98111 | 20.46451 | 36126 ft | 480 kts | 202° |
| 2026-04-22 15:36 | 50.92067 | 20.41922 | 36138 ft | 480 kts | 202° |
| 2026-04-22 15:37 | 50.86022 | 20.37416 | 36135 ft | 480 kts | 202° |
| 2026-04-22 15:37 | 50.79975 | 20.32912 | 36133 ft | 480 kts | 202° |
| 2026-04-22 15:38 | 50.73970 | 20.28456 | 36132 ft | 480 kts | 202° |
| 2026-04-22 15:38 | 50.64907 | 20.21737 | 36147 ft | 479 kts | 202° |
| 2026-04-22 15:39 | 50.58868 | 20.17285 | 36151 ft | 479 kts | 202° |
| 2026-04-22 15:39 | 50.52832 | 20.12847 | 36144 ft | 479 kts | 202° |
| 2026-04-22 15:40 | 50.46799 | 20.08420 | 36152 ft | 478 kts | 202° |
| 2026-04-22 15:40 | 50.40770 | 20.04007 | 36154 ft | 478 kts | 202° |
| 2026-04-22 15:41 | 50.34739 | 19.99614 | 36160 ft | 478 kts | 202° |
| 2026-04-22 15:41 | 50.28715 | 19.95231 | 36173 ft | 478 kts | 202° |
| 2026-04-22 15:42 | 50.22689 | 19.90857 | 36179 ft | 477 kts | 202° |
| 2026-04-22 15:42 | 50.16659 | 19.86498 | 36185 ft | 477 kts | 202° |
| 2026-04-22 15:43 | 50.10631 | 19.82158 | 36183 ft | 477 kts | 202° |
| 2026-04-22 15:43 | 50.04602 | 19.77824 | 36193 ft | 477 kts | 202° |
| 2026-04-22 15:44 | 49.98580 | 19.73504 | 36186 ft | 477 kts | 202° |
| 2026-04-22 15:44 | 49.92552 | 19.69198 | 36177 ft | 477 kts | 202° |
| 2026-04-22 15:45 | 49.87539 | 19.65632 | 36162 ft | 477 kts | 202° |
| 2026-04-22 15:45 | 49.80500 | 19.60618 | 36162 ft | 476 kts | 202° |
| 2026-04-22 15:46 | 49.75496 | 19.57063 | 36164 ft | 476 kts | 202° |
| 2026-04-22 15:46 | 49.69479 | 19.52805 | 36162 ft | 476 kts | 202° |
| 2026-04-22 15:47 | 49.63463 | 19.48563 | 36164 ft | 475 kts | 201° |
| 2026-04-22 15:47 | 49.57186 | 19.45680 | 36160 ft | 470 kts | 188° |
| 2026-04-22 15:48 | 49.50780 | 19.43703 | 36156 ft | 470 kts | 188° |
| 2026-04-22 15:48 | 49.44374 | 19.41710 | 36155 ft | 470 kts | 188° |
| 2026-04-22 15:49 | 49.37969 | 19.39720 | 36159 ft | 470 kts | 188° |
| 2026-04-22 15:49 | 49.31563 | 19.37736 | 36159 ft | 470 kts | 188° |
| 2026-04-22 15:50 | 49.25157 | 19.35757 | 36150 ft | 470 kts | 188° |
| 2026-04-22 15:50 | 49.18796 | 19.33807 | 36156 ft | 469 kts | 188° |
| 2026-04-22 15:51 | 49.12391 | 19.31853 | 36153 ft | 469 kts | 188° |
| 2026-04-22 15:51 | 49.05989 | 19.29892 | 36168 ft | 469 kts | 189° |
| 2026-04-22 15:52 | 48.99585 | 19.27930 | 36166 ft | 469 kts | 189° |
| 2026-04-22 15:52 | 48.93185 | 19.25976 | 36157 ft | 469 kts | 189° |
| 2026-04-22 15:53 | 48.86782 | 19.24041 | 36151 ft | 469 kts | 189° |
| 2026-04-22 15:53 | 48.80381 | 19.22115 | 36140 ft | 469 kts | 189° |
| 2026-04-22 15:54 | 48.73983 | 19.20176 | 36142 ft | 469 kts | 189° |
| 2026-04-22 15:54 | 48.67589 | 19.18240 | 36137 ft | 469 kts | 189° |
| 2026-04-22 15:55 | 48.61194 | 19.16313 | 36137 ft | 468 kts | 189° |
| 2026-04-22 15:55 | 48.54842 | 19.14412 | 36138 ft | 468 kts | 189° |
| 2026-04-22 15:56 | 48.48447 | 19.12512 | 36134 ft | 468 kts | 189° |
| 2026-04-22 15:56 | 48.42051 | 19.10638 | 36130 ft | 468 kts | 189° |
| 2026-04-22 15:57 | 48.35641 | 19.08896 | 36121 ft | 468 kts | 188° |
| 2026-04-22 15:57 | 48.29229 | 19.07203 | 36123 ft | 468 kts | 188° |
| 2026-04-22 15:58 | 48.22818 | 19.05479 | 36127 ft | 468 kts | 188° |
| 2026-04-22 15:58 | 48.16410 | 19.03738 | 36128 ft | 468 kts | 189° |
| 2026-04-22 15:59 | 48.09997 | 19.01992 | 36131 ft | 468 kts | 189° |
| 2026-04-22 15:59 | 48.03586 | 19.00262 | 36134 ft | 468 kts | 189° |
| 2026-04-22 16:00 | 47.97178 | 18.98545 | 36134 ft | 468 kts | 189° |
| 2026-04-22 16:00 | 47.90764 | 18.96832 | 36149 ft | 468 kts | 189° |
| 2026-04-22 16:01 | 47.84358 | 18.95121 | 36146 ft | 467 kts | 189° |
| 2026-04-22 16:01 | 47.77960 | 18.93418 | 36143 ft | 467 kts | 189° |
| 2026-04-22 16:02 | 47.71566 | 18.91720 | 36140 ft | 467 kts | 189° |
| 2026-04-22 16:02 | 47.65179 | 18.90016 | 36135 ft | 466 kts | 189° |
| 2026-04-22 16:03 | 47.58792 | 18.88326 | 36131 ft | 466 kts | 189° |
| 2026-04-22 16:03 | 47.52411 | 18.86646 | 36119 ft | 466 kts | 189° |
| 2026-04-22 16:04 | 47.46033 | 18.84969 | 36120 ft | 466 kts | 190° |
| 2026-04-22 16:04 | 47.39653 | 18.83289 | 36118 ft | 466 kts | 190° |
| 2026-04-22 16:05 | 47.33266 | 18.81615 | 36122 ft | 466 kts | 190° |
| 2026-04-22 16:05 | 47.26912 | 18.79963 | 36118 ft | 467 kts | 189° |
| 2026-04-22 16:06 | 47.20514 | 18.78299 | 36133 ft | 467 kts | 190° |
| 2026-04-22 16:06 | 47.14115 | 18.76634 | 36139 ft | 467 kts | 189° |
| 2026-04-22 16:07 | 47.07712 | 18.74975 | 36125 ft | 467 kts | 190° |
| 2026-04-22 16:07 | 47.01321 | 18.73314 | 36139 ft | 466 kts | 190° |
| 2026-04-22 16:08 | 46.94935 | 18.71665 | 36134 ft | 466 kts | 190° |
| 2026-04-22 16:08 | 46.88552 | 18.70018 | 36145 ft | 465 kts | 190° |
| 2026-04-22 16:09 | 46.82179 | 18.68378 | 36158 ft | 465 kts | 190° |
| 2026-04-22 16:09 | 46.75815 | 18.66746 | 36149 ft | 464 kts | 190° |
| 2026-04-22 16:10 | 46.69451 | 18.65118 | 36143 ft | 464 kts | 190° |
| 2026-04-22 16:10 | 46.63088 | 18.63504 | 36135 ft | 464 kts | 191° |
| 2026-04-22 16:11 | 46.56721 | 18.61888 | 36143 ft | 464 kts | 191° |
| 2026-04-22 16:11 | 46.50360 | 18.60267 | 36152 ft | 464 kts | 191° |
| 2026-04-22 16:12 | 46.43999 | 18.58656 | 36151 ft | 464 kts | 191° |
| 2026-04-22 16:12 | 46.37632 | 18.57050 | 36154 ft | 464 kts | 191° |
| 2026-04-22 16:13 | 46.31270 | 18.55451 | 36150 ft | 464 kts | 191° |
| 2026-04-22 16:13 | 46.24906 | 18.53848 | 36150 ft | 464 kts | 191° |
| 2026-04-22 16:14 | 46.18544 | 18.52247 | 36157 ft | 464 kts | 191° |
| 2026-04-22 16:14 | 46.12179 | 18.50653 | 36164 ft | 464 kts | 191° |
| 2026-04-22 16:15 | 46.05855 | 18.49074 | 36163 ft | 464 kts | 191° |
| 2026-04-22 16:15 | 45.99490 | 18.47484 | 36169 ft | 464 kts | 191° |
| 2026-04-22 16:16 | 45.93126 | 18.45902 | 36171 ft | 464 kts | 191° |
| 2026-04-22 16:16 | 45.86763 | 18.44326 | 36171 ft | 464 kts | 192° |
| 2026-04-22 16:17 | 45.80402 | 18.42755 | 36170 ft | 464 kts | 192° |
| 2026-04-22 16:17 | 45.74030 | 18.41319 | 36167 ft | 465 kts | 185° |
| 2026-04-22 16:18 | 45.67556 | 18.40978 | 36153 ft | 465 kts | 183° |
| 2026-04-22 16:18 | 45.61091 | 18.40661 | 36158 ft | 465 kts | 184° |
| 2026-04-22 16:19 | 45.54624 | 18.40336 | 36160 ft | 465 kts | 184° |
| 2026-04-22 16:19 | 45.48159 | 18.40023 | 36161 ft | 465 kts | 184° |
| 2026-04-22 16:20 | 45.41692 | 18.39710 | 36153 ft | 465 kts | 184° |
| 2026-04-22 16:20 | 45.35277 | 18.39389 | 36154 ft | 465 kts | 184° |
| 2026-04-22 16:21 | 45.28813 | 18.39066 | 36156 ft | 465 kts | 184° |
| 2026-04-22 16:21 | 45.22349 | 18.38749 | 36164 ft | 465 kts | 184° |
| 2026-04-22 16:22 | 45.12644 | 18.38271 | 36179 ft | 465 kts | 184° |
| 2026-04-22 16:23 | 45.05224 | 18.36709 | 36163 ft | 461 kts | 195° |
| 2026-04-22 16:23 | 44.99848 | 18.35124 | 36163 ft | 460 kts | 195° |
| 2026-04-22 16:24 | 44.90445 | 18.32358 | 36172 ft | 460 kts | 195° |
| 2026-04-22 16:25 | 44.84174 | 18.30518 | 36162 ft | 460 kts | 195° |
| 2026-04-22 16:25 | 44.74776 | 18.27777 | 36176 ft | 460 kts | 195° |
| 2026-04-22 16:26 | 44.68508 | 18.25952 | 36167 ft | 460 kts | 195° |
| 2026-04-22 16:26 | 44.62246 | 18.24144 | 36175 ft | 460 kts | 195° |
| 2026-04-22 16:27 | 44.55983 | 18.22334 | 36174 ft | 459 kts | 195° |
| 2026-04-22 16:27 | 44.49720 | 18.20515 | 36164 ft | 460 kts | 196° |
| 2026-04-22 16:28 | 44.43459 | 18.18698 | 36176 ft | 459 kts | 196° |
| 2026-04-22 16:28 | 44.37242 | 18.16918 | 36179 ft | 459 kts | 196° |
| 2026-04-22 16:29 | 44.30994 | 18.15135 | 36156 ft | 458 kts | 196° |
| 2026-04-22 16:29 | 44.24751 | 18.13337 | 36166 ft | 458 kts | 197° |
| 2026-04-22 16:30 | 44.18790 | 18.11621 | 36166 ft | 457 kts | 197° |
| 2026-04-22 16:30 | 44.12554 | 18.09843 | 36171 ft | 457 kts | 196° |
| 2026-04-22 16:31 | 44.06323 | 18.08074 | 36159 ft | 457 kts | 197° |
| 2026-04-22 16:31 | 44.00096 | 18.06311 | 36161 ft | 456 kts | 197° |
| 2026-04-22 16:32 | 43.93876 | 18.04545 | 36139 ft | 456 kts | 197° |
| 2026-04-22 16:32 | 43.87664 | 18.02781 | 36153 ft | 456 kts | 197° |
| 2026-04-22 16:33 | 43.84557 | 18.01903 | 35931 ft | 455 kts | 197° |
| 2026-04-22 16:33 | 43.81454 | 18.01031 | 35686 ft | 454 kts | 197° |
| 2026-04-22 16:33 | 43.79402 | 18.00455 | 35526 ft | 454 kts | 197° |
| 2026-04-22 16:33 | 43.75897 | 17.99467 | 35250 ft | 454 kts | 197° |
| 2026-04-22 16:34 | 43.72809 | 17.98591 | 34995 ft | 453 kts | 198° |
| 2026-04-22 16:34 | 43.69715 | 17.97720 | 34749 ft | 453 kts | 198° |
| 2026-04-22 16:34 | 43.66632 | 17.96856 | 34513 ft | 452 kts | 198° |
| 2026-04-22 16:34 | 43.63672 | 17.96032 | 34280 ft | 450 kts | 198° |
| 2026-04-22 16:35 | 43.60605 | 17.95185 | 34036 ft | 448 kts | 198° |
| 2026-04-22 16:35 | 43.57560 | 17.94342 | 33748 ft | 446 kts | 198° |
| 2026-04-22 16:35 | 43.54528 | 17.93497 | 33459 ft | 443 kts | 198° |
| 2026-04-22 16:35 | 43.51513 | 17.92651 | 33195 ft | 441 kts | 198° |
| 2026-04-22 16:36 | 43.48507 | 17.91809 | 32930 ft | 439 kts | 198° |
| 2026-04-22 16:36 | 43.45517 | 17.90974 | 32659 ft | 438 kts | 198° |
| 2026-04-22 16:36 | 43.42540 | 17.90146 | 32391 ft | 436 kts | 198° |
| 2026-04-22 16:36 | 43.39576 | 17.89322 | 32014 ft | 432 kts | 199° |
| 2026-04-22 16:37 | 43.36633 | 17.88502 | 31461 ft | 431 kts | 199° |
| 2026-04-22 16:37 | 43.33706 | 17.87687 | 30917 ft | 429 kts | 199° |
| 2026-04-22 16:37 | 43.30785 | 17.86877 | 30393 ft | 427 kts | 199° |
| 2026-04-22 16:37 | 43.27907 | 17.85997 | 29814 ft | 420 kts | 204° |
| 2026-04-22 16:38 | 43.25223 | 17.84583 | 29304 ft | 406 kts | 214° |
| 2026-04-22 16:38 | 43.22829 | 17.82676 | 28843 ft | 393 kts | 221° |
| 2026-04-22 16:38 | 43.20553 | 17.80644 | 28329 ft | 388 kts | 221° |
| 2026-04-22 16:38 | 43.18300 | 17.78650 | 27912 ft | 383 kts | 221° |
| 2026-04-22 16:39 | 43.16076 | 17.76692 | 27488 ft | 378 kts | 221° |
| 2026-04-22 16:39 | 43.13873 | 17.74756 | 27068 ft | 374 kts | 221° |
| 2026-04-22 16:39 | 43.11700 | 17.72842 | 26653 ft | 369 kts | 221° |
| 2026-04-22 16:39 | 43.09553 | 17.70946 | 26261 ft | 365 kts | 221° |
| 2026-04-22 16:40 | 43.07454 | 17.69094 | 25844 ft | 362 kts | 221° |
| 2026-04-22 16:40 | 43.05321 | 17.67212 | 25429 ft | 359 kts | 221° |
| 2026-04-22 16:40 | 43.01178 | 17.63571 | 24558 ft | 354 kts | 221° |
| 2026-04-22 16:41 | 42.99107 | 17.61773 | 24109 ft | 352 kts | 220° |
| 2026-04-22 16:41 | 42.97040 | 17.59986 | 23665 ft | 351 kts | 220° |
| 2026-04-22 16:41 | 42.94978 | 17.58202 | 23156 ft | 350 kts | 220° |
| 2026-04-22 16:41 | 42.92934 | 17.56437 | 22704 ft | 346 kts | 220° |
| 2026-04-22 16:42 | 42.90907 | 17.54688 | 22277 ft | 343 kts | 219° |
| 2026-04-22 16:42 | 42.88853 | 17.53026 | 21774 ft | 344 kts | 216° |
| 2026-04-22 16:42 | 42.86742 | 17.51472 | 21289 ft | 345 kts | 214° |
| 2026-04-22 16:42 | 42.84608 | 17.49980 | 20826 ft | 344 kts | 213° |
| 2026-04-22 16:43 | 42.82469 | 17.48511 | 20354 ft | 344 kts | 213° |
| 2026-04-22 16:43 | 42.80320 | 17.47082 | 19879 ft | 347 kts | 207° |
| 2026-04-22 16:43 | 42.77920 | 17.46499 | 19450 ft | 358 kts | 180° |
| 2026-04-22 16:43 | 42.75513 | 17.47318 | 19207 ft | 360 kts | 156° |
| 2026-04-22 16:44 | 42.73549 | 17.49420 | 18761 ft | 363 kts | 127° |
| 2026-04-22 16:44 | 42.72260 | 17.52344 | 18271 ft | 362 kts | 118° |
| 2026-04-22 16:44 | 42.71091 | 17.55330 | 17714 ft | 353 kts | 117° |
| 2026-04-22 16:44 | 42.69963 | 17.58270 | 17069 ft | 349 kts | 117° |
| 2026-04-22 16:45 | 42.68856 | 17.61178 | 16488 ft | 343 kts | 117° |
| 2026-04-22 16:45 | 42.67765 | 17.64035 | 15988 ft | 341 kts | 117° |
| 2026-04-22 16:45 | 42.66663 | 17.66896 | 15614 ft | 339 kts | 117° |
| 2026-04-22 16:45 | 42.65569 | 17.69717 | 15280 ft | 337 kts | 117° |
| 2026-04-22 16:46 | 42.64476 | 17.72523 | 14915 ft | 335 kts | 117° |
| 2026-04-22 16:46 | 42.63388 | 17.75307 | 14574 ft | 333 kts | 117° |
| 2026-04-22 16:46 | 42.62301 | 17.78080 | 14177 ft | 333 kts | 117° |
| 2026-04-22 16:46 | 42.61216 | 17.80843 | 13715 ft | 331 kts | 117° |
| 2026-04-22 16:47 | 42.60142 | 17.83586 | 13222 ft | 327 kts | 117° |
| 2026-04-22 16:47 | 42.59081 | 17.86298 | 12638 ft | 325 kts | 117° |
| 2026-04-22 16:47 | 42.58381 | 17.88086 | 12243 ft | 324 kts | 117° |
| 2026-04-22 16:47 | 42.56972 | 17.91673 | 11516 ft | 320 kts | 117° |
| 2026-04-22 16:48 | 42.55930 | 17.94322 | 10994 ft | 316 kts | 117° |
| 2026-04-22 16:48 | 42.54901 | 17.96932 | 10520 ft | 311 kts | 117° |
| 2026-04-22 16:48 | 42.53881 | 17.99520 | 9961 ft | 310 kts | 117° |
| 2026-04-22 16:48 | 42.52867 | 18.02094 | 9336 ft | 310 kts | 117° |
| 2026-04-22 16:49 | 42.51855 | 18.04663 | 8813 ft | 306 kts | 117° |
| 2026-04-22 16:49 | 42.50864 | 18.07175 | 8334 ft | 300 kts | 117° |
| 2026-04-22 16:49 | 42.49902 | 18.09611 | 7868 ft | 294 kts | 117° |
| 2026-04-22 16:49 | 42.48937 | 18.12048 | 7475 ft | 294 kts | 116° |
| 2026-04-22 16:50 | 42.47971 | 18.14492 | 7059 ft | 293 kts | 116° |
| 2026-04-22 16:50 | 42.47011 | 18.16927 | 6615 ft | 293 kts | 116° |
| 2026-04-22 16:50 | 42.46056 | 18.19349 | 6218 ft | 291 kts | 115° |
| 2026-04-22 16:50 | 42.45115 | 18.21739 | 6002 ft | 281 kts | 116° |
| 2026-04-22 16:51 | 42.44217 | 18.24002 | 5871 ft | 263 kts | 114° |
| 2026-04-22 16:51 | 42.43386 | 18.26090 | 5773 ft | 244 kts | 114° |
| 2026-04-22 16:51 | 42.42583 | 18.28118 | 5673 ft | 243 kts | 114° |
| 2026-04-22 16:51 | 42.41821 | 18.30141 | 5502 ft | 240 kts | 107° |
| 2026-04-22 16:52 | 42.41433 | 18.32317 | 5088 ft | 236 kts | 90° |
| 2026-04-22 16:52 | 42.41496 | 18.34501 | 4715 ft | 228 kts | 74° |
| 2026-04-22 16:52 | 42.41939 | 18.36507 | 4360 ft | 219 kts | 60° |
| 2026-04-22 16:52 | 42.42699 | 18.38241 | 4034 ft | 210 kts | 47° |
| 2026-04-22 16:53 | 42.43696 | 18.39627 | 3710 ft | 203 kts | 35° |
| 2026-04-22 16:53 | 42.44863 | 18.40639 | 3420 ft | 196 kts | 22° |
| 2026-04-22 16:53 | 42.46126 | 18.41250 | 3114 ft | 190 kts | 10° |
| 2026-04-22 16:53 | 42.47416 | 18.41466 | 2815 ft | 183 kts | 359° |
| 2026-04-22 16:54 | 42.48656 | 18.41275 | 2627 ft | 174 kts | 346° |
| 2026-04-22 16:54 | 42.49800 | 18.40666 | 2590 ft | 178 kts | 332° |
| 2026-04-22 16:54 | 42.50786 | 18.39674 | 2508 ft | 177 kts | 319° |
| 2026-04-22 16:54 | 42.51550 | 18.38365 | 2252 ft | 177 kts | 304° |
| 2026-04-22 16:55 | 42.52111 | 18.36944 | 2010 ft | 164 kts | 304° |
| 2026-04-22 16:55 | 42.52622 | 18.35644 | 1781 ft | 149 kts | 303° |
| 2026-04-22 16:55 | 42.53092 | 18.34452 | 1586 ft | 139 kts | 303° |
| 2026-04-22 16:55 | 42.53543 | 18.33317 | 1398 ft | 138 kts | 302° |
| 2026-04-22 16:56 | 42.53998 | 18.32165 | 1236 ft | 137 kts | 302° |
| 2026-04-22 16:56 | 42.54443 | 18.31021 | 1069 ft | 141 kts | 302° |
| 2026-04-22 16:56 | 42.54919 | 18.29839 | 862 ft | 141 kts | 306° |
| 2026-04-22 16:56 | 42.55380 | 18.28708 | 688 ft | 136 kts | 308° |
| 2026-04-22 16:57 | 42.55823 | 18.27597 | 534 ft | 124 kts | 309° |
| 2026-04-22 16:57 | 42.56188 | 18.26750 | 533 ft | 90 kts | 299° |
| 2026-04-22 16:57 | 42.56416 | 18.26148 | 534 ft | 56 kts | 296° |
| 2026-04-22 16:57 | 42.56551 | 18.25778 | 535 ft | 24 kts | 292° |
| 2026-04-22 16:58 | 42.56552 | 18.25662 | 535 ft | 19 kts | 243° |
| 2026-04-22 16:58 | 42.56470 | 18.25526 | 534 ft | 8 kts | 169° |
| 2026-04-22 16:58 | 42.56454 | 18.25542 | 534 ft | 3 kts | 130° |
| 2026-04-22 16:58 | 42.56438 | 18.25591 | 534 ft | 8 kts | 115° |
| 2026-04-22 16:59 | 42.56415 | 18.25653 | 534 ft | 7 kts | 117° |
| 2026-04-22 16:59 | 42.56393 | 18.25705 | 534 ft | 6 kts | 119° |
| 2026-04-22 16:59 | 42.56374 | 18.25754 | 534 ft | 6 kts | 118° |
| 2026-04-22 16:59 | 42.56346 | 18.25823 | 534 ft | 14 kts | 118° |
| 2026-04-22 17:00 | 42.56283 | 18.25982 | 534 ft | 22 kts | 118° |
| 2026-04-22 17:00 | 42.56178 | 18.26228 | 534 ft | 4 kts | 157° |
| 2026-04-22 17:00 | 42.56147 | 18.26215 | 534 ft | 3 kts | 207° |
| 2026-04-22 17:01 | 42.56134 | 18.26206 | 534 ft | 1 kts | 208° |
| 2026-04-22 17:01 | 42.56129 | 18.26202 | 534 ft | 1 kts | 208° |
| 2026-04-22 17:01 | 42.56129 | 18.26201 | 534 ft | 0 kts | 208° |